sensor_id;sensor_type;location;lat;lon;timestamp;pressure;altitude;pressure_sealevel;temperature;humidity
72116;BME280;59991;52.140;5.428;2023-05-21T00:00:23;101972.09;;;15.36;64.50
72116;BME280;59991;52.140;5.428;2023-05-21T00:00:55;101981.13;;;15.36;64.41
72116;BME280;59991;52.140;5.428;2023-05-21T00:01:26;101975.59;;;15.33;63.97
72116;BME280;59991;52.140;5.428;2023-05-21T00:01:58;101971.69;;;15.34;64.22
72116;BME280;59991;52.140;5.428;2023-05-21T00:02:30;101973.28;;;15.35;64.03
72116;BME280;59991;52.140;5.428;2023-05-21T00:03:01;101978.38;;;15.36;64.10
72116;BME280;59991;52.140;5.428;2023-05-21T00:03:33;101985.84;;;15.36;63.92
72116;BME280;59991;52.140;5.428;2023-05-21T00:04:06;101975.22;;;15.34;64.54
72116;BME280;59991;52.140;5.428;2023-05-21T00:04:38;101982.69;;;15.34;64.41
72116;BME280;59991;52.140;5.428;2023-05-21T00:05:10;101983.84;;;15.33;64.35
72116;BME280;59991;52.140;5.428;2023-05-21T00:05:45;101975.97;;;15.31;64.77
72116;BME280;59991;52.140;5.428;2023-05-21T00:06:17;101976.38;;;15.30;64.77
72116;BME280;59991;52.140;5.428;2023-05-21T00:06:51;101975.94;;;15.28;64.57
72116;BME280;59991;52.140;5.428;2023-05-21T00:07:23;101980.28;;;15.29;64.60
72116;BME280;59991;52.140;5.428;2023-05-21T00:07:55;101974.00;;;15.28;64.62
72116;BME280;59991;52.140;5.428;2023-05-21T00:08:27;101973.22;;;15.28;64.53
72116;BME280;59991;52.140;5.428;2023-05-21T00:08:58;101971.25;;;15.28;64.87
72116;BME280;59991;52.140;5.428;2023-05-21T00:09:30;101968.47;;;15.25;64.97
72116;BME280;59991;52.140;5.428;2023-05-21T00:10:01;101962.59;;;15.26;65.03
72116;BME280;59991;52.140;5.428;2023-05-21T00:10:33;101970.03;;;15.26;65.14
72116;BME280;59991;52.140;5.428;2023-05-21T00:11:05;101972.00;;;15.25;64.32
72116;BME280;59991;52.140;5.428;2023-05-21T00:11:36;101971.22;;;15.25;64.94
72116;BME280;59991;52.140;5.428;2023-05-21T00:12:08;101964.13;;;15.24;64.83
72116;BME280;59991;52.140;5.428;2023-05-21T00:12:39;101965.72;;;15.25;64.69
72116;BME280;59991;52.140;5.428;2023-05-21T00:13:12;101968.47;;;15.25;64.86
72116;BME280;59991;52.140;5.428;2023-05-21T00:13:43;101965.31;;;15.23;64.72
72116;BME280;59991;52.140;5.428;2023-05-21T00:14:15;101965.72;;;15.25;64.64
72116;BME280;59991;52.140;5.428;2023-05-21T00:14:46;101970.03;;;15.26;65.09
72116;BME280;59991;52.140;5.428;2023-05-21T00:15:18;101968.06;;;15.23;65.71
72116;BME280;59991;52.140;5.428;2023-05-21T00:15:49;101966.09;;;15.23;66.13
72116;BME280;59991;52.140;5.428;2023-05-21T00:16:21;101969.63;;;15.24;65.50
72116;BME280;59991;52.140;5.428;2023-05-21T00:16:53;101973.19;;;15.24;65.36
72116;BME280;59991;52.140;5.428;2023-05-21T00:17:24;101972.75;;;15.22;65.30
72116;BME280;59991;52.140;5.428;2023-05-21T00:17:56;101973.94;;;15.21;65.01
72116;BME280;59991;52.140;5.428;2023-05-21T00:18:28;101974.72;;;15.21;65.57
72116;BME280;59991;52.140;5.428;2023-05-21T00:19:02;101973.16;;;15.20;65.53
72116;BME280;59991;52.140;5.428;2023-05-21T00:19:33;101973.56;;;15.19;65.73
72116;BME280;59991;52.140;5.428;2023-05-21T00:20:06;101975.50;;;15.18;65.70
72116;BME280;59991;52.140;5.428;2023-05-21T00:20:38;101967.66;;;15.17;65.41
72116;BME280;59991;52.140;5.428;2023-05-21T00:21:11;101965.28;;;15.15;65.72
72116;BME280;59991;52.140;5.428;2023-05-21T00:21:44;101970.78;;;15.15;65.12
72116;BME280;59991;52.140;5.428;2023-05-21T00:22:18;101969.19;;;15.14;65.10
72116;BME280;59991;52.140;5.428;2023-05-21T00:22:50;101967.63;;;15.13;65.17
72116;BME280;59991;52.140;5.428;2023-05-21T00:23:22;101965.28;;;15.15;65.59
72116;BME280;59991;52.140;5.428;2023-05-21T00:23:53;101966.44;;;15.14;65.90
72116;BME280;59991;52.140;5.428;2023-05-21T00:24:27;101966.44;;;15.14;65.33
72116;BME280;59991;52.140;5.428;2023-05-21T00:24:59;101965.28;;;15.15;65.76
72116;BME280;59991;52.140;5.428;2023-05-21T00:25:30;101962.94;;;15.17;66.04
72116;BME280;59991;52.140;5.428;2023-05-21T00:26:02;101968.44;;;15.17;65.80
72116;BME280;59991;52.140;5.428;2023-05-21T00:26:33;101959.78;;;15.15;65.72
72116;BME280;59991;52.140;5.428;2023-05-21T00:27:05;101962.16;;;15.17;66.00
72116;BME280;59991;52.140;5.428;2023-05-21T00:27:36;101964.88;;;15.13;66.22
72116;BME280;59991;52.140;5.428;2023-05-21T00:28:08;101966.03;;;15.12;66.22
72116;BME280;59991;52.140;5.428;2023-05-21T00:28:39;101955.44;;;15.11;66.28
72116;BME280;59991;52.140;5.428;2023-05-21T00:29:11;101964.06;;;15.13;66.47
72116;BME280;59991;52.140;5.428;2023-05-21T00:29:42;101958.56;;;15.09;66.31
72116;BME280;59991;52.140;5.428;2023-05-21T00:30:14;101958.56;;;15.09;65.80
72116;BME280;59991;52.140;5.428;2023-05-21T00:30:46;101960.53;;;15.12;66.15
72116;BME280;59991;52.140;5.428;2023-05-21T00:31:18;101956.63;;;15.13;66.33
72116;BME280;59991;52.140;5.428;2023-05-21T00:31:49;101953.47;;;15.11;66.01
72116;BME280;59991;52.140;5.428;2023-05-21T00:32:22;101955.47;;;15.14;65.70
72116;BME280;59991;52.140;5.428;2023-05-21T00:32:54;101955.03;;;15.12;66.08
72116;BME280;59991;52.140;5.428;2023-05-21T00:33:25;101951.91;;;15.14;66.25
72116;BME280;59991;52.140;5.428;2023-05-21T00:33:57;101957.41;;;15.14;66.08
72116;BME280;59991;52.140;5.428;2023-05-21T00:34:28;101949.56;;;15.12;66.45
72116;BME280;59991;52.140;5.428;2023-05-21T00:34:59;101949.94;;;15.11;66.09
72116;BME280;59991;52.140;5.428;2023-05-21T00:35:31;101944.06;;;15.12;66.22
72116;BME280;59991;52.140;5.428;2023-05-21T00:36:02;101947.19;;;15.11;66.30
72116;BME280;59991;52.140;5.428;2023-05-21T00:36:34;101951.06;;;15.06;66.57
72116;BME280;59991;52.140;5.428;2023-05-21T00:37:05;101946.31;;;15.03;66.39
72116;BME280;59991;52.140;5.428;2023-05-21T00:37:40;101955.75;;;15.06;67.04
72116;BME280;59991;52.140;5.428;2023-05-21T00:38:11;101959.69;;;15.05;67.11
72116;BME280;59991;52.140;5.428;2023-05-21T00:38:44;101955.34;;;15.04;66.38
72116;BME280;59991;52.140;5.428;2023-05-21T00:39:16;101951.03;;;15.03;66.47
72116;BME280;59991;52.140;5.428;2023-05-21T00:39:47;101953.41;;;15.04;66.19
72116;BME280;59991;52.140;5.428;2023-05-21T00:40:19;101959.69;;;15.05;66.44
72116;BME280;59991;52.140;5.428;2023-05-21T00:40:51;101952.59;;;15.00;66.88
72116;BME280;59991;52.140;5.428;2023-05-21T00:41:22;101952.19;;;15.02;67.10
72116;BME280;59991;52.140;5.428;2023-05-21T00:41:55;101955.72;;;15.02;67.09
72116;BME280;59991;52.140;5.428;2023-05-21T00:42:27;101951.03;;;15.03;66.72
72116;BME280;59991;52.140;5.428;2023-05-21T00:43:00;101949.88;;;15.04;67.19
72116;BME280;59991;52.140;5.428;2023-05-21T00:43:32;101949.88;;;15.04;66.49
72116;BME280;59991;52.140;5.428;2023-05-21T00:44:04;101953.41;;;15.04;66.78
72116;BME280;59991;52.140;5.428;2023-05-21T00:44:36;101947.91;;;15.04;66.95
72116;BME280;59991;52.140;5.428;2023-05-21T00:45:07;101943.19;;;15.05;66.69
72116;BME280;59991;52.140;5.428;2023-05-21T00:45:40;101946.75;;;15.05;66.82
72116;BME280;59991;52.140;5.428;2023-05-21T00:46:14;101942.41;;;15.04;66.77
72116;BME280;59991;52.140;5.428;2023-05-21T00:46:49;101948.72;;;15.08;67.12
72116;BME280;59991;52.140;5.428;2023-05-21T00:47:24;101954.22;;;15.08;67.33
72116;BME280;59991;52.140;5.428;2023-05-21T00:47:57;101946.75;;;15.05;67.13
72116;BME280;59991;52.140;5.428;2023-05-21T00:48:29;101947.53;;;15.06;67.27
72116;BME280;59991;52.140;5.428;2023-05-21T00:49:02;101941.25;;;15.05;66.85
72116;BME280;59991;52.140;5.428;2023-05-21T00:49:34;101942.41;;;15.04;66.59
72116;BME280;59991;52.140;5.428;2023-05-21T00:50:07;101947.91;;;15.04;66.75
72116;BME280;59991;52.140;5.428;2023-05-21T00:50:39;101945.16;;;15.04;66.36
72116;BME280;59991;52.140;5.428;2023-05-21T00:51:12;101944.38;;;15.04;66.84
72116;BME280;59991;52.140;5.428;2023-05-21T00:51:44;101939.25;;;15.02;66.79
72116;BME280;59991;52.140;5.428;2023-05-21T00:52:16;101940.47;;;15.05;67.11
72116;BME280;59991;52.140;5.428;2023-05-21T00:52:50;101941.25;;;15.05;66.79
72116;BME280;59991;52.140;5.428;2023-05-21T00:53:22;101945.19;;;15.08;67.44
72116;BME280;59991;52.140;5.428;2023-05-21T00:53:53;101940.06;;;15.06;67.38
72116;BME280;59991;52.140;5.428;2023-05-21T00:54:25;101945.56;;;15.06;67.19
72116;BME280;59991;52.140;5.428;2023-05-21T00:54:56;101943.22;;;15.08;67.47
72116;BME280;59991;52.140;5.428;2023-05-21T00:55:28;101940.47;;;15.05;67.31
72116;BME280;59991;52.140;5.428;2023-05-21T00:56:01;101946.31;;;15.03;66.99
72116;BME280;59991;52.140;5.428;2023-05-21T00:56:33;101941.25;;;15.05;66.85
72116;BME280;59991;52.140;5.428;2023-05-21T00:57:04;101936.91;;;15.04;67.09
72116;BME280;59991;52.140;5.428;2023-05-21T00:57:36;101944.00;;;15.05;66.76
72116;BME280;59991;52.140;5.428;2023-05-21T00:58:08;101940.06;;;15.06;66.86
72116;BME280;59991;52.140;5.428;2023-05-21T00:58:40;101937.31;;;15.06;66.84
72116;BME280;59991;52.140;5.428;2023-05-21T00:59:14;101941.66;;;15.07;67.15
72116;BME280;59991;52.140;5.428;2023-05-21T00:59:47;101940.06;;;15.06;67.11
72116;BME280;59991;52.140;5.428;2023-05-21T01:00:21;101939.28;;;15.06;66.75
72116;BME280;59991;52.140;5.428;2023-05-21T01:00:54;101947.91;;;15.04;67.46
72116;BME280;59991;52.140;5.428;2023-05-21T01:01:26;101946.31;;;15.03;67.84
72116;BME280;59991;52.140;5.428;2023-05-21T01:02:04;101943.16;;;15.01;67.69
72116;BME280;59991;52.140;5.428;2023-05-21T01:02:36;101937.69;;;15.01;67.40
72116;BME280;59991;52.140;5.428;2023-05-21T01:03:08;101943.59;;;15.03;67.11
72116;BME280;59991;52.140;5.428;2023-05-21T01:03:41;101938.47;;;15.02;67.49
72116;BME280;59991;52.140;5.428;2023-05-21T01:04:13;101942.00;;;15.02;67.51
72116;BME280;59991;52.140;5.428;2023-05-21T01:04:44;101939.25;;;15.02;68.02
72116;BME280;59991;52.140;5.428;2023-05-21T01:05:17;101941.22;;;15.02;67.21
72116;BME280;59991;52.140;5.428;2023-05-21T01:05:50;101934.94;;;15.01;67.56
72116;BME280;59991;52.140;5.428;2023-05-21T01:06:23;101932.59;;;15.00;67.51
72116;BME280;59991;52.140;5.428;2023-05-21T01:06:55;101940.03;;;15.03;67.30
72116;BME280;59991;52.140;5.428;2023-05-21T01:07:26;101934.56;;;15.03;67.04
72116;BME280;59991;52.140;5.428;2023-05-21T01:07:58;101932.97;;;15.02;67.43
72116;BME280;59991;52.140;5.428;2023-05-21T01:08:29;101938.88;;;15.04;67.08
72116;BME280;59991;52.140;5.428;2023-05-21T01:09:01;101924.34;;;15.00;67.36
72116;BME280;59991;52.140;5.428;2023-05-21T01:09:35;101932.97;;;14.98;67.19
72116;BME280;59991;52.140;5.428;2023-05-21T01:10:08;101937.69;;;15.01;67.01
72116;BME280;59991;52.140;5.428;2023-05-21T01:10:40;101929.84;;;15.00;66.99
72116;BME280;59991;52.140;5.428;2023-05-21T01:11:12;101929.44;;;15.01;67.14
72116;BME280;59991;52.140;5.428;2023-05-21T01:11:46;101929.44;;;15.01;67.59
72116;BME280;59991;52.140;5.428;2023-05-21T01:12:19;101934.94;;;15.01;67.43
72116;BME280;59991;52.140;5.428;2023-05-21T01:12:51;101938.47;;;15.02;67.52
72116;BME280;59991;52.140;5.428;2023-05-21T01:13:26;101931.41;;;15.01;67.81
72116;BME280;59991;52.140;5.428;2023-05-21T01:13:58;101932.97;;;15.02;67.86
72116;BME280;59991;52.140;5.428;2023-05-21T01:14:29;101936.50;;;14.99;67.94
72116;BME280;59991;52.140;5.428;2023-05-21T01:15:02;101931.38;;;14.97;67.49
72116;BME280;59991;52.140;5.428;2023-05-21T01:15:34;101931.81;;;14.99;68.22
72116;BME280;59991;52.140;5.428;2023-05-21T01:16:09;101934.53;;;14.99;67.74
72116;BME280;59991;52.140;5.428;2023-05-21T01:16:43;101937.28;;;14.99;67.67
72116;BME280;59991;52.140;5.428;2023-05-21T01:17:16;101935.34;;;15.00;67.77
72116;BME280;59991;52.140;5.428;2023-05-21T01:17:48;101933.38;;;15.00;67.75
72116;BME280;59991;52.140;5.428;2023-05-21T01:18:20;101930.59;;;14.97;68.18
72116;BME280;59991;52.140;5.428;2023-05-21T01:18:52;101929.44;;;14.98;67.87
72116;BME280;59991;52.140;5.428;2023-05-21T01:19:24;101924.72;;;14.98;67.90
72116;BME280;59991;52.140;5.428;2023-05-21T01:19:59;101931.81;;;14.99;68.39
72116;BME280;59991;52.140;5.428;2023-05-21T01:20:30;101928.66;;;14.97;68.26
72116;BME280;59991;52.140;5.428;2023-05-21T01:21:03;101930.56;;;14.93;68.18
72116;BME280;59991;52.140;5.428;2023-05-21T01:21:36;101927.03;;;14.93;68.72
72116;BME280;59991;52.140;5.428;2023-05-21T01:22:11;101926.66;;;14.94;68.64
72116;BME280;59991;52.140;5.428;2023-05-21T01:22:51;101925.06;;;14.93;68.36
72116;BME280;59991;52.140;5.428;2023-05-21T01:23:23;101921.13;;;14.91;68.60
72116;BME280;59991;52.140;5.428;2023-05-21T01:23:55;101927.78;;;14.90;68.50
72116;BME280;59991;52.140;5.428;2023-05-21T01:24:26;101925.03;;;14.90;68.79
72116;BME280;59991;52.140;5.428;2023-05-21T01:24:58;101925.03;;;14.90;69.08
72116;BME280;59991;52.140;5.428;2023-05-21T01:25:34;101924.25;;;14.89;68.70
72116;BME280;59991;52.140;5.428;2023-05-21T01:26:05;101919.53;;;14.90;68.66
72116;BME280;59991;52.140;5.428;2023-05-21T01:26:37;101921.13;;;14.91;68.48
72116;BME280;59991;52.140;5.428;2023-05-21T01:27:11;101930.94;;;14.92;68.82
72116;BME280;59991;52.140;5.428;2023-05-21T01:27:43;101928.97;;;14.92;68.61
72116;BME280;59991;52.140;5.428;2023-05-21T01:28:14;101922.69;;;14.92;68.90
72116;BME280;59991;52.140;5.428;2023-05-21T01:28:45;101919.53;;;14.90;68.22
72116;BME280;59991;52.140;5.428;2023-05-21T01:29:18;101918.75;;;14.89;68.15
72116;BME280;59991;52.140;5.428;2023-05-21T01:29:49;101924.28;;;14.93;68.02
72116;BME280;59991;52.140;5.428;2023-05-21T01:30:22;101930.19;;;14.95;68.54
72116;BME280;59991;52.140;5.428;2023-05-21T01:30:55;101926.66;;;14.94;67.87
72116;BME280;59991;52.140;5.428;2023-05-21T01:31:36;101919.16;;;14.91;67.96
72116;BME280;59991;52.140;5.428;2023-05-21T01:32:20;101923.50;;;14.92;68.20
72116;BME280;59991;52.140;5.428;2023-05-21T01:33:18;101921.53;;;14.93;68.28
72116;BME280;59991;52.140;5.428;2023-05-21T01:33:54;101926.63;;;14.91;68.37
72116;BME280;59991;52.140;5.428;2023-05-21T01:34:33;101919.53;;;14.90;68.27
72116;BME280;59991;52.140;5.428;2023-05-21T01:35:11;101923.47;;;14.89;68.43
72116;BME280;59991;52.140;5.428;2023-05-21T01:35:50;101926.59;;;14.87;68.76
72116;BME280;59991;52.140;5.428;2023-05-21T01:36:28;101926.59;;;14.87;68.74
72116;BME280;59991;52.140;5.428;2023-05-21T01:37:16;101922.25;;;14.86;68.79
72116;BME280;59991;52.140;5.428;2023-05-21T01:38:03;101926.53;;;14.83;68.40
72116;BME280;59991;52.140;5.428;2023-05-21T01:39:22;101920.25;;;14.79;68.74
72116;BME280;59991;52.140;5.428;2023-05-21T01:40:03;101921.06;;;14.80;68.86
72116;BME280;59991;52.140;5.428;2023-05-21T01:40:52;101921.81;;;14.77;69.10
72116;BME280;59991;52.140;5.428;2023-05-21T01:41:25;101924.56;;;14.77;69.01
72116;BME280;59991;52.140;5.428;2023-05-21T01:41:59;101914.72;;;14.76;68.68
72116;BME280;59991;52.140;5.428;2023-05-21T01:42:35;101916.28;;;14.73;69.20
72116;BME280;59991;52.140;5.428;2023-05-21T01:43:08;101913.50;;;14.70;68.85
72116;BME280;59991;52.140;5.428;2023-05-21T01:43:42;101925.28;;;14.70;68.88
72116;BME280;59991;52.140;5.428;2023-05-21T01:44:17;101919.00;;;14.70;69.06
72116;BME280;59991;52.140;5.428;2023-05-21T01:44:54;101923.69;;;14.69;68.99
72116;BME280;59991;52.140;5.428;2023-05-21T01:45:27;101918.56;;;14.68;68.91
72116;BME280;59991;52.140;5.428;2023-05-21T01:46:01;101917.41;;;14.69;69.21
72116;BME280;59991;52.140;5.428;2023-05-21T01:46:34;101904.44;;;14.66;68.87
72116;BME280;59991;52.140;5.428;2023-05-21T01:47:09;101911.50;;;14.67;68.94
72116;BME280;59991;52.140;5.428;2023-05-21T01:47:44;101922.09;;;14.68;69.59
72116;BME280;59991;52.140;5.428;2023-05-21T01:48:17;101924.06;;;14.68;69.53
72116;BME280;59991;52.140;5.428;2023-05-21T01:48:51;101918.16;;;14.66;69.67
72116;BME280;59991;52.140;5.428;2023-05-21T01:49:23;101918.53;;;14.64;69.71
72116;BME280;59991;52.140;5.428;2023-05-21T01:49:55;101915.41;;;14.66;69.36
72116;BME280;59991;52.140;5.428;2023-05-21T01:50:27;101912.66;;;14.62;69.24
72116;BME280;59991;52.140;5.428;2023-05-21T01:51:02;101919.38;;;14.68;69.24
72116;BME280;59991;52.140;5.428;2023-05-21T01:51:34;101914.25;;;14.67;70.07
72116;BME280;59991;52.140;5.428;2023-05-21T01:52:06;101917.75;;;14.64;70.01
72116;BME280;59991;52.140;5.428;2023-05-21T01:52:38;101912.25;;;14.64;69.59
72116;BME280;59991;52.140;5.428;2023-05-21T01:53:09;101917.00;;;14.67;69.30
72116;BME280;59991;52.140;5.428;2023-05-21T01:53:41;101928.38;;;14.69;69.32
72116;BME280;59991;52.140;5.428;2023-05-21T01:54:12;101918.56;;;14.68;69.62
72116;BME280;59991;52.140;5.428;2023-05-21T01:54:44;101918.94;;;14.66;69.85
72116;BME280;59991;52.140;5.428;2023-05-21T01:55:16;101910.69;;;14.63;69.62
72116;BME280;59991;52.140;5.428;2023-05-21T01:55:48;101915.41;;;14.62;69.31
72116;BME280;59991;52.140;5.428;2023-05-21T01:56:19;101911.47;;;14.60;69.23
72116;BME280;59991;52.140;5.428;2023-05-21T01:56:56;101918.53;;;14.64;69.65
72116;BME280;59991;52.140;5.428;2023-05-21T01:57:27;101911.09;;;14.65;69.83
72116;BME280;59991;52.140;5.428;2023-05-21T01:57:59;101914.22;;;14.63;69.79
72116;BME280;59991;52.140;5.428;2023-05-21T01:58:32;101917.38;;;14.65;69.33
72116;BME280;59991;52.140;5.428;2023-05-21T01:59:04;101920.50;;;14.64;70.10
72116;BME280;59991;52.140;5.428;2023-05-21T01:59:36;101910.31;;;14.64;69.83
72116;BME280;59991;52.140;5.428;2023-05-21T02:00:08;101917.00;;;14.67;69.46
72116;BME280;59991;52.140;5.428;2023-05-21T02:00:41;101915.41;;;14.66;69.79
72116;BME280;59991;52.140;5.428;2023-05-21T02:01:12;101918.56;;;14.68;69.89
72116;BME280;59991;52.140;5.428;2023-05-21T02:01:43;101920.53;;;14.67;69.84
72116;BME280;59991;52.140;5.428;2023-05-21T02:02:15;101915.41;;;14.66;69.88
72116;BME280;59991;52.140;5.428;2023-05-21T02:02:47;101918.53;;;14.64;69.73
72116;BME280;59991;52.140;5.428;2023-05-21T02:03:19;101914.63;;;14.62;70.22
72116;BME280;59991;52.140;5.428;2023-05-21T02:03:51;101921.28;;;14.61;70.12
72116;BME280;59991;52.140;5.428;2023-05-21T02:04:23;101924.41;;;14.63;70.22
72116;BME280;59991;52.140;5.428;2023-05-21T02:04:55;101916.97;;;14.63;70.06
72116;BME280;59991;52.140;5.428;2023-05-21T02:05:26;101916.16;;;14.63;69.84
72116;BME280;59991;52.140;5.428;2023-05-21T02:05:58;101920.84;;;14.59;69.90
72116;BME280;59991;52.140;5.428;2023-05-21T02:06:29;101911.03;;;14.58;70.56
72116;BME280;59991;52.140;5.428;2023-05-21T02:07:01;101915.41;;;14.62;70.17
72116;BME280;59991;52.140;5.428;2023-05-21T02:07:33;101916.16;;;14.63;69.80
72116;BME280;59991;52.140;5.428;2023-05-21T02:08:04;101911.47;;;14.60;69.89
72116;BME280;59991;52.140;5.428;2023-05-21T02:08:38;101911.88;;;14.65;70.35
72116;BME280;59991;52.140;5.428;2023-05-21T02:09:10;101910.31;;;14.64;70.38
72116;BME280;59991;52.140;5.428;2023-05-21T02:09:42;101910.28;;;14.61;70.36
72116;BME280;59991;52.140;5.428;2023-05-21T02:10:13;101904.44;;;14.62;70.33
72116;BME280;59991;52.140;5.428;2023-05-21T02:10:44;101910.69;;;14.63;70.39
72116;BME280;59991;52.140;5.428;2023-05-21T02:11:16;101911.47;;;14.60;70.26
72116;BME280;59991;52.140;5.428;2023-05-21T02:11:48;101914.63;;;14.62;70.11
72116;BME280;59991;52.140;5.428;2023-05-21T02:12:19;101913.81;;;14.61;69.86
72116;BME280;59991;52.140;5.428;2023-05-21T02:12:51;101906.72;;;14.57;69.66
72116;BME280;59991;52.140;5.428;2023-05-21T02:13:22;101915.78;;;14.61;70.45
72116;BME280;59991;52.140;5.428;2023-05-21T02:13:57;101909.88;;;14.59;70.38
72116;BME280;59991;52.140;5.428;2023-05-21T02:14:28;101917.38;;;14.62;70.30
72116;BME280;59991;52.140;5.428;2023-05-21T02:15:00;101911.09;;;14.61;70.39
72116;BME280;59991;52.140;5.428;2023-05-21T02:15:33;101899.66;;;14.56;70.59
72116;BME280;59991;52.140;5.428;2023-05-21T02:16:05;101907.50;;;14.57;70.21
72116;BME280;59991;52.140;5.428;2023-05-21T02:16:40;101905.94;;;14.56;70.73
72116;BME280;59991;52.140;5.428;2023-05-21T02:17:12;101907.88;;;14.56;70.23
72116;BME280;59991;52.140;5.428;2023-05-21T02:17:45;101911.03;;;14.58;70.24
72116;BME280;59991;52.140;5.428;2023-05-21T02:18:16;101920.44;;;14.57;70.18
72116;BME280;59991;52.140;5.428;2023-05-21T02:18:48;101908.31;;;14.58;70.08
72116;BME280;59991;52.140;5.428;2023-05-21T02:19:22;101905.16;;;14.56;70.73
72116;BME280;59991;52.140;5.428;2023-05-21T02:19:54;101915.75;;;14.57;70.73
72116;BME280;59991;52.140;5.428;2023-05-21T02:20:25;101914.16;;;14.56;70.66
72116;BME280;59991;52.140;5.428;2023-05-21T02:20:56;101903.97;;;14.57;70.14
72116;BME280;59991;52.140;5.428;2023-05-21T02:21:28;101908.69;;;14.56;70.39
72116;BME280;59991;52.140;5.428;2023-05-21T02:21:59;101914.16;;;14.56;70.27
72116;BME280;59991;52.140;5.428;2023-05-21T02:22:31;101917.69;;;14.57;70.45
72116;BME280;59991;52.140;5.428;2023-05-21T02:23:02;101904.34;;;14.55;70.24
72116;BME280;59991;52.140;5.428;2023-05-21T02:23:34;101905.16;;;14.56;70.45
72116;BME280;59991;52.140;5.428;2023-05-21T02:24:06;101900.81;;;14.55;71.00
72116;BME280;59991;52.140;5.428;2023-05-21T02:24:37;101902.03;;;14.57;70.57
72116;BME280;59991;52.140;5.428;2023-05-21T02:25:10;101904.78;;;14.57;70.84
72116;BME280;59991;52.140;5.428;2023-05-21T02:25:41;101900.03;;;14.54;70.74
72116;BME280;59991;52.140;5.428;2023-05-21T02:26:14;101896.50;;;14.54;70.68
72116;BME280;59991;52.140;5.428;2023-05-21T02:26:45;101907.88;;;14.56;71.01
72116;BME280;59991;52.140;5.428;2023-05-21T02:27:18;101897.28;;;14.54;71.03
72116;BME280;59991;52.140;5.428;2023-05-21T02:27:50;101903.56;;;14.55;71.04
72116;BME280;59991;52.140;5.428;2023-05-21T02:28:23;101904.72;;;14.54;71.14
72116;BME280;59991;52.140;5.428;2023-05-21T02:28:55;101907.84;;;14.52;71.22
72116;BME280;59991;52.140;5.428;2023-05-21T02:29:26;101909.00;;;14.51;71.12
72116;BME280;59991;52.140;5.428;2023-05-21T02:29:58;101900.78;;;14.51;71.60
72116;BME280;59991;52.140;5.428;2023-05-21T02:30:30;101909.81;;;14.51;71.48
72116;BME280;59991;52.140;5.428;2023-05-21T02:31:01;101905.84;;;14.49;71.87
72116;BME280;59991;52.140;5.428;2023-05-21T02:31:33;101907.41;;;14.46;72.06
72116;BME280;59991;52.140;5.428;2023-05-21T02:32:04;101908.16;;;14.43;71.77
72116;BME280;59991;52.140;5.428;2023-05-21T02:32:37;101912.88;;;14.43;71.31
72116;BME280;59991;52.140;5.428;2023-05-21T02:33:14;101905.81;;;14.42;71.48
72116;BME280;59991;52.140;5.428;2023-05-21T02:33:46;101908.94;;;14.40;71.72
72116;BME280;59991;52.140;5.428;2023-05-21T02:34:17;101908.09;;;14.40;71.93
72116;BME280;59991;52.140;5.428;2023-05-21T02:34:51;101908.56;;;14.42;71.69
72116;BME280;59991;52.140;5.428;2023-05-21T02:35:23;101908.09;;;14.40;71.74
72116;BME280;59991;52.140;5.428;2023-05-21T02:35:54;101909.72;;;14.44;71.37
72116;BME280;59991;52.140;5.428;2023-05-21T02:36:26;101907.78;;;14.45;71.57
72116;BME280;59991;52.140;5.428;2023-05-21T02:36:58;101902.66;;;14.43;71.53
72116;BME280;59991;52.140;5.428;2023-05-21T02:37:31;101906.19;;;14.44;71.77
72116;BME280;59991;52.140;5.428;2023-05-21T02:38:05;101909.72;;;14.44;71.65
72116;BME280;59991;52.140;5.428;2023-05-21T02:38:39;101912.09;;;14.46;71.50
72116;BME280;59991;52.140;5.428;2023-05-21T02:39:14;101905.81;;;14.42;71.65
72116;BME280;59991;52.140;5.428;2023-05-21T02:39:45;101914.81;;;14.42;71.90
72116;BME280;59991;52.140;5.428;2023-05-21T02:40:17;101913.25;;;14.41;72.22
72116;BME280;59991;52.140;5.428;2023-05-21T02:40:49;101916.00;;;14.41;72.14
72116;BME280;59991;52.140;5.428;2023-05-21T02:41:21;101908.94;;;14.40;72.09
72116;BME280;59991;52.140;5.428;2023-05-21T02:41:53;101913.63;;;14.43;72.23
72116;BME280;59991;52.140;5.428;2023-05-21T02:42:25;101915.19;;;14.41;72.43
72116;BME280;59991;52.140;5.428;2023-05-21T02:42:56;101910.44;;;14.38;71.93
72116;BME280;59991;52.140;5.428;2023-05-21T02:43:27;101919.91;;;14.40;72.31
72116;BME280;59991;52.140;5.428;2023-05-21T02:43:59;101906.91;;;14.37;72.12
72116;BME280;59991;52.140;5.428;2023-05-21T02:44:31;101909.66;;;14.37;72.32
72116;BME280;59991;52.140;5.428;2023-05-21T02:45:02;101911.22;;;14.38;71.96
72116;BME280;59991;52.140;5.428;2023-05-21T02:45:34;101913.56;;;14.36;72.39
72116;BME280;59991;52.140;5.428;2023-05-21T02:46:06;101909.28;;;14.39;71.85
72116;BME280;59991;52.140;5.428;2023-05-21T02:46:38;101908.06;;;14.36;71.58
72116;BME280;59991;52.140;5.428;2023-05-21T02:47:09;101912.38;;;14.37;72.14
72116;BME280;59991;52.140;5.428;2023-05-21T02:47:42;101908.94;;;14.40;72.25
72116;BME280;59991;52.140;5.428;2023-05-21T02:48:14;101907.69;;;14.38;72.76
72116;BME280;59991;52.140;5.428;2023-05-21T02:48:45;101910.44;;;14.38;72.13
72116;BME280;59991;52.140;5.428;2023-05-21T02:49:17;101905.81;;;14.42;72.38
72116;BME280;59991;52.140;5.428;2023-05-21T02:49:49;101906.19;;;14.40;72.02
72116;BME280;59991;52.140;5.428;2023-05-21T02:50:21;101905.81;;;14.42;72.33
72116;BME280;59991;52.140;5.428;2023-05-21T02:50:53;101906.59;;;14.42;72.38
72116;BME280;59991;52.140;5.428;2023-05-21T02:51:24;101905.38;;;14.40;72.40
72116;BME280;59991;52.140;5.428;2023-05-21T02:51:56;101909.72;;;14.41;71.93